createdAt,value
2022-10-17T00:01:07.911Z,9.73
2022-10-17T00:03:37.214Z,8.80
2022-10-17T00:06:08.213Z,9.45
2022-10-17T00:08:36.827Z,9.55
2022-10-17T00:11:07.201Z,6.78
2022-10-17T00:13:36.985Z,9.20
2022-10-17T00:16:05.885Z,8.93
2022-10-17T00:18:34.224Z,8.15
2022-10-17T00:21:02.446Z,9.10
2022-10-17T00:23:30.777Z,7.72
2022-10-17T00:26:02.337Z,7.68
2022-10-17T00:28:30.920Z,8.50
2022-10-17T00:31:02.345Z,10.45
2022-10-17T00:33:31.135Z,6.43
2022-10-17T00:36:07.304Z,7.28
2022-10-17T00:38:36.144Z,9.35
2022-10-17T00:41:04.856Z,10.00
2022-10-17T00:43:48.208Z,6.07
2022-10-17T00:46:17.928Z,10.23
2022-10-17T00:48:47.485Z,9.02
2022-10-17T00:51:16.786Z,10.35
2022-10-17T00:53:45.037Z,7.72
2022-10-17T00:56:14.577Z,8.77
2022-10-17T00:58:42.861Z,8.05
2022-10-17T01:01:11.186Z,10.40
2022-10-17T01:03:40.804Z,8.38
2022-10-17T01:06:09.386Z,8.13
2022-10-17T01:08:38.466Z,9.23
2022-10-17T01:11:20.829Z,11.25
2022-10-17T01:13:54.020Z,9.48
2022-10-17T01:16:30.492Z,7.15
2022-10-17T01:19:08.373Z,8.00
2022-10-17T01:21:46.234Z,8.73
2022-10-17T01:24:48.085Z,8.95
2022-10-17T01:27:56.532Z,8.65
2022-10-17T01:30:51.756Z,13.57
2022-10-17T01:33:28.925Z,9.15
2022-10-17T01:36:04.903Z,8.23
2022-10-17T01:38:36.721Z,8.68
2022-10-17T01:41:11.076Z,10.35
2022-10-17T01:43:42.628Z,7.72
2022-10-17T01:46:15.588Z,10.88
2022-10-17T01:48:47.480Z,8.43
2022-10-17T01:51:20.390Z,8.02
2022-10-17T01:53:54.333Z,8.75
2022-10-17T01:56:26.911Z,11.75
2022-10-17T01:59:01.427Z,10.05
2022-10-17T02:01:31.940Z,10.55
2022-10-17T02:04:03.033Z,11.27
2022-10-17T02:06:35.232Z,9.90
2022-10-17T02:09:16.226Z,11.70
2022-10-17T02:11:49.162Z,10.70
2022-10-17T02:14:29.116Z,12.93
2022-10-17T02:17:09.625Z,8.18
2022-10-17T02:19:55.236Z,9.32
2022-10-17T02:22:34.057Z,12.15
2022-10-17T02:25:08.887Z,7.35
2022-10-17T02:27:45.077Z,8.48
2022-10-17T02:30:16.293Z,8.23
2022-10-17T02:32:50.683Z,7.97
2022-10-17T02:35:22.178Z,7.38
2022-10-17T02:37:52.209Z,9.18
2022-10-17T02:40:23.793Z,9.77
2022-10-17T02:42:53.985Z,8.55
2022-10-17T02:45:22.866Z,8.77
2022-10-17T02:47:57.240Z,7.28
2022-10-17T02:50:34.625Z,10.57
2022-10-17T02:53:07.591Z,11.40
2022-10-17T02:55:40.605Z,11.60
2022-10-17T02:58:13.366Z,10.52
2022-10-17T03:00:42.911Z,8.07
2022-10-17T03:03:21.669Z,9.05
2022-10-17T03:05:52.200Z,8.52
2022-10-17T03:08:21.010Z,10.10
2022-10-17T03:10:49.754Z,11.77
2022-10-17T03:13:18.990Z,7.82
2022-10-17T03:15:47.371Z,9.05
2022-10-17T03:18:15.758Z,14.32
2022-10-17T03:20:44.133Z,12.55
2022-10-17T03:23:13.668Z,7.88
2022-10-17T03:25:41.923Z,13.07
2022-10-17T03:28:12.565Z,8.68
2022-10-17T03:30:40.995Z,13.68
2022-10-17T03:33:09.296Z,8.65
2022-10-17T03:35:40.266Z,11.30
2022-10-17T03:38:08.648Z,9.35
2022-10-17T03:40:38.268Z,9.88
2022-10-17T03:43:06.574Z,12.35
2022-10-17T03:45:35.304Z,10.98
2022-10-17T03:48:03.838Z,14.15
2022-10-17T03:50:32.274Z,14.63
2022-10-17T03:53:00.654Z,11.38
2022-10-17T03:55:28.774Z,10.50
2022-10-17T03:57:58.272Z,14.40
2022-10-17T04:00:26.460Z,14.27
2022-10-17T04:02:55.053Z,11.20
2022-10-17T04:05:23.301Z,14.65
2022-10-17T04:07:51.662Z,15.57
2022-10-17T04:10:19.977Z,10.90
2022-10-17T04:12:48.105Z,12.23
2022-10-17T04:15:18.066Z,12.55
2022-10-17T04:17:48.506Z,13.55
2022-10-17T04:20:17.112Z,10.95
2022-10-17T04:22:45.333Z,14.60
2022-10-17T04:25:13.558Z,10.15
2022-10-17T04:27:41.938Z,12.23
2022-10-17T04:30:10.686Z,11.77
2022-10-17T04:32:40.835Z,10.88
2022-10-17T04:35:09.905Z,12.48
2022-10-17T04:37:38.101Z,12.18
2022-10-17T04:40:07.044Z,13.05
2022-10-17T04:42:35.369Z,18.27
2022-10-17T04:45:03.608Z,14.35
2022-10-17T04:47:31.853Z,12.82
2022-10-17T04:50:01.372Z,15.57
2022-10-17T04:52:29.992Z,13.65
2022-10-17T04:54:58.622Z,12.98
2022-10-17T04:57:27.559Z,14.85
2022-10-17T04:59:55.916Z,16.77
2022-10-17T05:02:24.213Z,15.80
2022-10-17T05:04:52.468Z,16.23
2022-10-17T05:07:22.075Z,14.15
2022-10-17T05:09:50.479Z,13.10
2022-10-17T05:12:18.783Z,16.65
2022-10-17T05:14:46.900Z,13.65
2022-10-17T05:17:15.305Z,14.45
2022-10-17T05:19:43.692Z,24.27
2022-10-17T05:22:11.902Z,19.45
2022-10-17T05:24:41.493Z,15.65
2022-10-17T05:27:09.771Z,16.02
2022-10-17T05:29:38.034Z,14.07
2022-10-17T05:32:06.500Z,14.25
2022-10-17T05:34:35.397Z,15.07
2022-10-17T05:37:04.052Z,16.48
2022-10-17T05:39:32.550Z,17.48
2022-10-17T05:42:01.967Z,20.48
2022-10-17T05:44:30.321Z,21.85
2022-10-17T05:46:58.597Z,17.40
2022-10-17T05:49:33.269Z,18.10
2022-10-17T05:52:08.273Z,15.25
2022-10-17T05:54:36.636Z,16.23
2022-10-17T05:57:06.307Z,16.75
2022-10-17T05:59:34.593Z,14.10
2022-10-17T06:02:03.075Z,12.93
2022-10-17T06:04:31.407Z,15.65
2022-10-17T06:06:59.702Z,13.57
2022-10-17T06:09:28.129Z,13.52
2022-10-17T06:11:56.375Z,14.77
2022-10-17T06:14:26.015Z,15.43
2022-10-17T06:16:54.690Z,12.82
2022-10-17T06:19:23.226Z,11.88
2022-10-17T06:21:51.425Z,14.93
2022-10-17T06:24:19.837Z,12.52
2022-10-17T06:26:49.900Z,12.60
2022-10-17T06:29:18.292Z,13.80
2022-10-17T06:31:47.962Z,12.32
2022-10-17T06:34:16.411Z,12.73
2022-10-17T06:36:44.752Z,10.38
2022-10-17T06:39:13.468Z,10.05
2022-10-17T06:41:43.823Z,12.95
2022-10-17T06:44:12.232Z,15.73
2022-10-17T06:46:41.232Z,13.35
2022-10-17T06:49:12.012Z,12.25
2022-10-17T06:51:40.223Z,19.35
2022-10-17T06:54:08.646Z,12.73
2022-10-17T06:56:37.222Z,15.48
2022-10-17T06:59:05.592Z,18.02
2022-10-17T07:01:34.302Z,12.20
2022-10-17T07:04:02.645Z,15.10
2022-10-17T07:06:32.439Z,14.40
2022-10-17T07:09:02.852Z,12.90
2022-10-17T07:11:31.134Z,15.63
2022-10-17T07:13:59.386Z,12.13
2022-10-17T07:16:27.788Z,12.98
2022-10-17T07:18:56.635Z,16.40
2022-10-17T07:21:25.032Z,16.38
2022-10-17T07:23:54.624Z,13.57
2022-10-17T07:26:23.185Z,13.35
2022-10-17T07:28:55.072Z,15.15
2022-10-17T07:31:24.018Z,14.68
2022-10-17T07:33:52.362Z,14.52
2022-10-17T07:36:21.030Z,17.58
2022-10-17T07:38:49.481Z,14.98
2022-10-17T07:41:21.717Z,16.45
2022-10-17T07:43:50.475Z,20.60
2022-10-17T07:46:19.097Z,14.13
2022-10-17T07:48:47.424Z,15.80
2022-10-17T07:51:16.053Z,16.33
2022-10-17T07:53:46.483Z,17.95
2022-10-17T07:56:18.305Z,22.77
2022-10-17T07:58:48.396Z,16.25
2022-10-17T08:01:17.558Z,13.77
2022-10-17T08:03:47.222Z,19.92
2022-10-17T08:06:15.790Z,16.88
2022-10-17T08:08:44.931Z,11.25
2022-10-17T08:11:15.919Z,9.40
2022-10-17T08:13:45.323Z,8.70
2022-10-17T08:16:15.163Z,9.32
2022-10-17T08:18:44.476Z,9.77
2022-10-17T08:21:14.226Z,8.05
2022-10-17T08:23:42.601Z,6.03
2022-10-17T08:26:13.813Z,10.18
2022-10-17T08:28:42.320Z,7.53
2022-10-17T08:31:14.500Z,9.90
2022-10-17T08:33:43.251Z,9.93
2022-10-17T08:36:13.308Z,6.93
2022-10-17T08:38:43.734Z,6.03
2022-10-17T08:41:21.489Z,8.57
2022-10-17T08:44:07.933Z,9.02
2022-10-17T08:46:42.030Z,8.48
2022-10-17T08:49:14.703Z,5.32
2022-10-17T08:51:49.235Z,7.30
2022-10-17T08:54:21.417Z,6.60
2022-10-17T08:56:52.653Z,7.43
2022-10-17T08:59:26.525Z,5.05
2022-10-17T09:02:02.228Z,5.40
2022-10-17T09:04:48.675Z,7.57
2022-10-17T09:07:25.284Z,5.20
2022-10-17T09:10:04.675Z,5.72
2022-10-17T09:12:41.818Z,7.93
2022-10-17T09:15:49.830Z,7.43
2022-10-17T09:18:24.395Z,10.45
2022-10-17T09:20:55.606Z,6.97
2022-10-17T09:23:27.111Z,6.00
2022-10-17T09:25:57.264Z,7.13
2022-10-17T09:28:30.731Z,9.10
2022-10-17T09:31:02.609Z,4.93
2022-10-17T09:33:52.961Z,5.82
2022-10-17T09:36:27.130Z,4.55
2022-10-17T09:38:57.132Z,5.47
2022-10-17T09:41:45.841Z,3.85
2022-10-17T09:44:21.725Z,7.75
2022-10-17T09:47:14.868Z,5.38
2022-10-17T09:49:46.059Z,5.90
2022-10-17T09:52:17.661Z,6.28
2022-10-17T09:54:48.056Z,5.43
2022-10-17T09:57:18.367Z,6.07
2022-10-17T09:59:48.669Z,8.80
2022-10-17T10:02:20.504Z,4.95
2022-10-17T10:05:04.227Z,4.95
2022-10-17T10:07:34.378Z,6.07
2022-10-17T10:10:04.130Z,7.00
2022-10-17T10:12:33.784Z,9.48
2022-10-17T10:15:02.216Z,7.40
2022-10-17T10:17:39.548Z,7.78
2022-10-17T10:20:32.695Z,5.05
2022-10-17T10:23:15.221Z,7.05
2022-10-17T10:25:57.773Z,6.10
2022-10-17T10:28:29.094Z,5.00
2022-10-17T10:30:59.776Z,5.80
2022-10-17T10:33:30.933Z,4.28
2022-10-17T10:36:03.469Z,6.47
2022-10-17T10:38:33.075Z,4.15
2022-10-17T10:41:05.061Z,3.65
2022-10-17T10:43:38.925Z,4.70
2022-10-17T10:46:18.751Z,5.15
2022-10-17T10:48:54.805Z,5.97
2022-10-17T10:51:29.124Z,6.50
2022-10-17T10:54:03.299Z,4.03
2022-10-17T10:56:35.979Z,4.95
2022-10-17T10:59:10.536Z,6.90
2022-10-17T11:01:45.118Z,4.88
2022-10-17T11:04:26.703Z,5.38
2022-10-17T11:07:02.489Z,6.13
2022-10-17T11:09:42.153Z,6.55
2022-10-17T11:12:18.087Z,6.82
2022-10-17T11:14:50.766Z,5.65
2022-10-17T11:17:29.049Z,4.60
2022-10-17T11:20:05.154Z,6.15
2022-10-17T11:22:39.596Z,4.63
2022-10-17T11:25:18.952Z,4.70
2022-10-17T11:27:47.393Z,8.40
2022-10-17T11:30:17.095Z,6.55
2022-10-17T11:32:48.279Z,4.25
2022-10-17T11:35:21.631Z,6.28
2022-10-17T11:37:55.211Z,4.72
2022-10-17T11:40:30.587Z,6.35
2022-10-17T11:43:02.397Z,4.82
2022-10-17T11:45:42.575Z,4.97
2022-10-17T11:48:18.715Z,4.55
2022-10-17T11:53:54.401Z,4.65
2022-10-17T11:56:28.821Z,5.18
2022-10-17T11:59:07.469Z,5.53
2022-10-17T12:01:40.118Z,4.85
2022-10-17T12:04:21.158Z,6.07
2022-10-17T12:07:00.998Z,5.15
2022-10-17T12:09:40.847Z,5.22
2022-10-17T12:12:09.279Z,3.50
2022-10-17T12:14:42.600Z,5.03
2022-10-17T12:17:34.776Z,6.18
2022-10-17T12:20:31.651Z,8.98
2022-10-17T12:23:07.412Z,9.30
2022-10-17T12:28:16.228Z,6.07
2022-10-17T12:30:59.512Z,5.10
2022-10-17T12:33:33.196Z,4.82
2022-10-17T12:36:47.222Z,6.88
2022-10-17T12:39:48.369Z,3.20
2022-10-17T12:42:49.384Z,5.85
2022-10-17T12:45:50.165Z,4.18
2022-10-17T12:49:03.883Z,5.78
2022-10-17T12:52:10.685Z,6.05
2022-10-17T12:54:47.610Z,4.15
2022-10-17T12:57:28.442Z,10.95
2022-10-17T12:59:58.824Z,4.68
2022-10-17T13:02:29.528Z,4.13
2022-10-17T13:05:08.096Z,7.60
2022-10-17T13:07:38.116Z,5.32
2022-10-17T13:10:07.734Z,4.15
2022-10-17T13:12:41.354Z,4.13
2022-10-17T13:15:17.779Z,7.38
2022-10-17T13:17:46.179Z,4.35
2022-10-17T13:20:25.549Z,3.35
2022-10-17T13:22:58.040Z,4.90
2022-10-17T13:25:27.416Z,7.10
2022-10-17T13:28:06.913Z,4.47
2022-10-17T13:30:37.528Z,3.95
2022-10-17T13:33:20.255Z,3.95
2022-10-17T13:35:59.871Z,7.47
2022-10-17T13:38:32.250Z,4.05
2022-10-17T13:41:30.077Z,4.22
2022-10-17T13:43:50.646Z,3.17
2022-10-17T13:46:37.210Z,5.07
2022-10-17T13:49:22.288Z,5.88
2022-10-17T13:51:54.559Z,4.85
2022-10-17T13:54:37.581Z,3.83
2022-10-17T13:57:16.920Z,6.05
2022-10-17T13:59:47.845Z,4.55
2022-10-17T14:02:20.690Z,6.53
2022-10-17T14:05:15.769Z,5.30
2022-10-17T14:08:09.261Z,7.65
2022-10-17T14:10:32.891Z,4.18
2022-10-17T14:13:02.167Z,4.30
2022-10-17T14:15:32.422Z,6.05
2022-10-17T14:18:07.828Z,6.05
2022-10-17T14:23:35.373Z,5.45
2022-10-17T14:26:13.195Z,6.65
2022-10-17T14:28:42.810Z,4.63
2022-10-17T14:31:19.375Z,6.95
2022-10-17T14:33:51.198Z,7.35
2022-10-17T14:36:20.429Z,4.43
2022-10-17T14:38:51.473Z,6.43
2022-10-17T14:44:25.207Z,5.13
2022-10-17T14:46:57.799Z,4.45
2022-10-17T14:49:34.225Z,3.47
2022-10-17T14:52:27.302Z,10.82
2022-10-17T14:54:55.929Z,5.43
2022-10-17T14:57:27.995Z,2.67
2022-10-17T14:59:57.259Z,4.50
2022-10-17T15:02:26.342Z,4.30
2022-10-17T15:04:56.128Z,3.25
2022-10-17T15:07:24.810Z,4.72
2022-10-17T15:09:54.470Z,5.93
2022-10-17T15:12:24.987Z,7.03
2022-10-17T15:14:54.170Z,4.32
2022-10-17T15:17:25.240Z,5.10
2022-10-17T15:19:53.667Z,3.97
2022-10-17T15:22:23.197Z,2.60
2022-10-17T15:24:51.643Z,6.15
2022-10-17T15:27:21.416Z,7.43
2022-10-17T15:29:50.530Z,3.08
2022-10-17T15:32:18.869Z,7.20
2022-10-17T15:34:47.037Z,5.13
2022-10-17T15:37:20.067Z,5.38
2022-10-17T15:39:53.454Z,6.15
2022-10-17T15:42:23.031Z,4.40
2022-10-17T15:44:51.162Z,5.80
2022-10-17T15:47:25.420Z,7.20
2022-10-17T15:49:53.771Z,4.45
2022-10-17T15:52:22.454Z,4.88
2022-10-17T15:54:51.980Z,4.72
2022-10-17T15:57:21.935Z,7.75
2022-10-17T15:59:52.262Z,6.63
2022-10-17T16:02:22.316Z,4.75
2022-10-17T16:04:51.410Z,4.97
2022-10-17T16:07:20.126Z,7.50
2022-10-17T16:09:48.298Z,4.97
2022-10-17T16:12:20.347Z,6.15
2022-10-17T16:14:48.722Z,4.03
2022-10-17T16:17:18.138Z,4.32
2022-10-17T16:19:46.426Z,5.07
2022-10-17T16:22:24.805Z,3.47
2022-10-17T16:24:58.437Z,4.97
2022-10-17T16:27:28.612Z,6.78
2022-10-17T16:29:56.940Z,4.22
2022-10-17T16:32:25.100Z,4.97
2022-10-17T16:34:53.387Z,3.80
2022-10-17T16:37:21.775Z,4.00
2022-10-17T16:39:52.440Z,4.93
2022-10-17T16:42:21.368Z,5.43
2022-10-17T16:44:51.525Z,6.10
2022-10-17T16:47:20.163Z,7.65
2022-10-17T16:49:48.516Z,8.43
2022-10-17T16:52:17.039Z,7.13
2022-10-17T16:54:45.374Z,11.10
2022-10-17T16:57:14.068Z,6.03
2022-10-17T16:59:42.369Z,6.50
2022-10-17T17:02:12.379Z,8.52
2022-10-17T17:04:40.599Z,5.60
2022-10-17T17:07:09.324Z,6.65
2022-10-17T17:09:37.553Z,4.80
2022-10-17T17:12:05.926Z,6.72
2022-10-17T17:14:34.365Z,6.10
2022-10-17T17:17:02.821Z,7.90
2022-10-17T17:19:32.668Z,5.45
2022-10-17T17:22:01.022Z,6.88
2022-10-17T17:24:29.401Z,5.63
2022-10-17T17:26:58.377Z,4.70
2022-10-17T17:29:27.019Z,9.23
2022-10-17T17:31:55.495Z,6.28
2022-10-17T17:34:23.637Z,9.05
2022-10-17T17:36:53.519Z,5.65
2022-10-17T17:39:22.063Z,7.00
2022-10-17T17:41:50.658Z,6.95
2022-10-17T17:44:19.034Z,8.85
2022-10-17T17:46:47.963Z,7.88
2022-10-17T17:49:16.148Z,7.88
2022-10-17T17:51:46.605Z,7.00
2022-10-17T17:54:16.400Z,10.18
2022-10-17T17:56:44.673Z,7.03
2022-10-17T17:59:14.180Z,9.55
2022-10-17T18:01:42.868Z,15.45
2022-10-17T18:04:12.125Z,18.23
2022-10-17T18:06:40.925Z,19.02
2022-10-17T18:09:10.165Z,15.93
2022-10-17T18:11:40.084Z,18.40
2022-10-17T18:14:12.331Z,14.80
2022-10-17T18:16:40.779Z,17.35
2022-10-17T18:19:11.530Z,17.10
2022-10-17T18:21:39.717Z,14.27
2022-10-17T18:24:08.253Z,9.57
2022-10-17T18:26:36.942Z,10.02
2022-10-17T18:29:06.630Z,11.20
2022-10-17T18:31:36.417Z,18.00
2022-10-17T18:34:06.149Z,11.60
2022-10-17T18:36:37.176Z,12.55
2022-10-17T18:39:06.237Z,11.95
2022-10-17T18:41:34.944Z,11.77
2022-10-17T18:44:03.994Z,10.57
2022-10-17T18:46:40.511Z,11.00
2022-10-17T18:49:10.030Z,19.10
2022-10-17T18:51:38.215Z,14.40
2022-10-17T18:54:06.547Z,14.73
2022-10-17T18:56:35.154Z,10.93
2022-10-17T18:59:03.571Z,13.80
2022-10-17T19:01:33.344Z,13.13
2022-10-17T19:04:02.183Z,16.38
2022-10-17T19:06:32.687Z,18.30
2022-10-17T19:09:01.904Z,20.20
2022-10-17T19:11:31.494Z,15.10
2022-10-17T19:14:01.131Z,14.75
2022-10-17T19:16:31.789Z,13.45
2022-10-17T19:19:03.039Z,14.40
2022-10-17T19:21:31.534Z,12.45
2022-10-17T19:24:01.290Z,11.10
2022-10-17T19:26:31.372Z,13.10
2022-10-17T19:29:00.592Z,12.68
2022-10-17T19:31:31.595Z,12.20
2022-10-17T19:34:01.608Z,13.15
2022-10-17T19:36:33.365Z,12.05
2022-10-17T19:39:03.372Z,16.38
2022-10-17T19:41:33.678Z,13.70
2022-10-17T19:44:02.251Z,12.88
2022-10-17T19:46:31.900Z,14.50
2022-10-17T19:49:02.128Z,13.15
2022-10-17T19:51:31.032Z,13.95
2022-10-17T19:54:01.216Z,14.65
2022-10-17T19:56:32.460Z,14.00
2022-10-17T19:59:00.874Z,11.55
2022-10-17T20:01:30.461Z,12.25
2022-10-17T20:03:59.130Z,11.93
2022-10-17T20:06:28.924Z,18.05
2022-10-17T20:08:57.300Z,17.83
2022-10-17T20:11:27.325Z,14.63
2022-10-17T20:13:56.326Z,21.40
2022-10-17T20:16:25.720Z,16.98
2022-10-17T20:18:55.754Z,20.63
2022-10-17T20:21:27.603Z,12.60
2022-10-17T20:23:57.246Z,14.48
2022-10-17T20:26:42.588Z,15.20
2022-10-17T20:29:13.862Z,16.63
2022-10-17T20:31:43.446Z,14.13
2022-10-17T20:34:14.139Z,15.45
2022-10-17T20:36:42.582Z,15.38
2022-10-17T20:39:13.732Z,19.98
2022-10-17T20:41:42.551Z,18.38
2022-10-17T20:44:10.967Z,15.32
2022-10-17T20:46:44.715Z,21.83
2022-10-17T20:49:16.501Z,17.08
2022-10-17T20:51:45.085Z,21.38
2022-10-17T20:54:14.835Z,17.13
2022-10-17T20:56:43.529Z,18.50
2022-10-17T20:59:14.363Z,17.90
2022-10-17T21:01:42.896Z,16.85
2022-10-17T21:04:40.692Z,18.17
2022-10-17T21:06:59.776Z,17.23
2022-10-17T21:09:29.639Z,23.85
2022-10-17T21:11:57.946Z,20.63
2022-10-17T21:14:26.763Z,17.73
2022-10-17T21:16:55.693Z,16.45
2022-10-17T21:19:25.067Z,18.58
2022-10-17T21:21:53.307Z,18.73
2022-10-17T21:24:21.559Z,22.65
2022-10-17T21:26:55.682Z,17.33
2022-10-17T21:29:24.675Z,20.88
2022-10-17T21:31:53.558Z,20.65
2022-10-17T21:34:24.503Z,19.55
2022-10-17T21:36:53.662Z,19.95
2022-10-17T21:39:24.089Z,23.95
2022-10-17T21:41:54.863Z,21.95
2022-10-17T21:44:25.016Z,21.02
2022-10-17T21:46:53.879Z,21.17
2022-10-17T21:49:24.012Z,24.77
2022-10-17T21:51:53.428Z,24.80
2022-10-17T21:54:23.008Z,26.00
2022-10-17T21:56:51.643Z,20.88
2022-10-17T21:59:21.166Z,23.45
2022-10-17T22:01:49.610Z,21.83
2022-10-17T22:04:19.820Z,22.83
2022-10-17T22:06:51.079Z,25.20
2022-10-17T22:09:22.133Z,25.27
2022-10-17T22:11:52.195Z,25.33
2022-10-17T22:14:24.642Z,25.92
2022-10-17T22:16:53.245Z,28.73
2022-10-17T22:19:22.516Z,30.10
2022-10-17T22:21:50.928Z,26.48
2022-10-17T22:26:50.086Z,24.75
2022-10-17T22:29:18.495Z,23.40
2022-10-17T22:31:48.405Z,23.98
2022-10-17T22:34:17.966Z,27.73
2022-10-17T22:36:47.780Z,27.60
2022-10-17T22:39:16.037Z,27.42
2022-10-17T22:41:44.200Z,27.90
2022-10-17T22:44:12.562Z,26.70
2022-10-17T22:46:40.968Z,27.67
2022-10-17T22:49:10.737Z,26.25
2022-10-17T22:51:39.164Z,27.23
2022-10-17T22:54:07.711Z,31.52
2022-10-17T22:56:36.152Z,30.48
2022-10-17T22:59:04.643Z,25.85
2022-10-17T23:01:33.048Z,30.40
2022-10-17T23:04:01.368Z,26.40
2022-10-17T23:06:30.940Z,27.60
2022-10-17T23:08:59.261Z,28.55
2022-10-17T23:11:27.479Z,27.75
2022-10-17T23:13:55.813Z,30.65
2022-10-17T23:16:24.028Z,35.42
2022-10-17T23:18:52.340Z,32.95
2022-10-17T23:21:20.566Z,32.33
2022-10-17T23:23:50.006Z,34.60
2022-10-17T23:26:18.344Z,27.02
2022-10-17T23:28:46.670Z,26.55
2022-10-17T23:31:16.856Z,29.90
2022-10-17T23:33:46.240Z,29.60
2022-10-17T23:36:15.866Z,29.00
2022-10-17T23:38:45.117Z,33.95
2022-10-17T23:41:15.393Z,29.67
2022-10-17T23:43:43.820Z,34.85
2022-10-17T23:46:12.700Z,31.50
2022-10-17T23:48:41.396Z,32.88
2022-10-17T23:51:10.652Z,35.83
2022-10-17T23:53:39.506Z,33.70
2022-10-17T23:56:09.054Z,39.05
2022-10-17T23:58:39.292Z,35.67
